Terminal Aerodrome Forecast
Issued by NWS

Home | Current Version | Previous Version | Text Only | Print | Product List | Glossary On
Versions: 1 2 3 4 5 6 7 8 9 10 11 12
811
FTUS44 KEPZ 120525
TAFLRU
TAF
KLRU 120525Z 1206/1306 VRB04KT P6SM SKC
     FM120900 33006KT P6SM FEW250
     FM122000 08005KT P6SM FEW250=

USA.gov is the U.S. government's official web portal to all federal, state and local government web resources and services.